7VA2 weather

Technical Center Heliport
Colonial Heights, Virginia, United States

Public forecast

Using degrees Fahrenheit for public forecast. Weather courtesy of forecast.io.

METAR (pilot weather report)

Closest report is Chesterfield County Airport, 8.7 nm (16.1 km) NW. Retrieved 2019/01/17 07:56 UTC (42 minutes ago):

KFCI 170756Z AUTO 00000KT 9SM BKN045 M04/M04 A3033 RMK AO2 SLP291 T10391044 FZRANO

TAF (pilot weather forecast)

Closest forecast is Richmond International Airport, 12.5 nm (23.1 km) NNE. Retrieved 2019/01/17 06:22 UTC (2 hours ago):

TAF KRIC 170520Z 1706/1806 00000KT P6SM SCT050 FM171400 05004KT P6SM BKN080 FM172200 13004KT P6SM OVC060 FM180200 16004KT 6SM -RA OVC060 FM180500 17005KT 6SM -RA OVC030